createdAt,value
2018-10-11T00:00:32.013Z,10.50
2018-10-11T00:02:38.133Z,12.63
2018-10-11T00:04:44.268Z,11.77
2018-10-11T00:06:50.376Z,11.40
2018-10-11T00:08:56.557Z,10.93
2018-10-11T00:11:02.724Z,11.20
2018-10-11T00:13:08.808Z,11.50
2018-10-11T00:15:14.942Z,11.40
2018-10-11T00:17:21.028Z,12.37
2018-10-11T00:19:27.149Z,11.97
2018-10-11T00:21:33.244Z,11.23
2018-10-11T00:23:39.331Z,11.80
2018-10-11T00:25:45.415Z,11.30
2018-10-11T00:27:51.547Z,10.23
2018-10-11T00:29:57.680Z,10.03
2018-10-11T00:32:03.835Z,11.07
2018-10-11T00:34:09.932Z,10.00
2018-10-11T00:36:16.083Z,11.23
2018-10-11T00:38:22.333Z,10.90
2018-10-11T00:40:28.476Z,10.20
2018-10-11T00:42:34.545Z,9.60
2018-10-11T00:44:40.662Z,10.40
2018-10-11T00:46:53.380Z,9.73
2018-10-11T00:48:59.509Z,9.50
2018-10-11T00:51:05.686Z,10.10
2018-10-11T00:53:11.903Z,10.50
2018-10-11T00:55:18.043Z,10.40
2018-10-11T00:57:24.137Z,9.90
2018-10-11T00:59:30.233Z,10.80
2018-10-11T01:01:36.548Z,10.00
2018-10-11T01:03:42.634Z,10.97
2018-10-11T01:05:48.762Z,10.07
2018-10-11T01:07:54.868Z,10.83
2018-10-11T01:10:01.034Z,10.90
2018-10-11T01:12:07.036Z,10.40
2018-10-11T01:14:13.208Z,10.23
2018-10-11T01:16:19.309Z,10.93
2018-10-11T01:18:25.514Z,11.80
2018-10-11T01:20:31.666Z,10.83
2018-10-11T01:22:37.798Z,11.80
2018-10-11T01:24:43.952Z,12.13
2018-10-11T01:26:50.097Z,9.27
2018-10-11T01:28:56.204Z,10.57
2018-10-11T01:31:07.502Z,10.73
2018-10-11T01:33:13.642Z,10.00
2018-10-11T01:35:19.736Z,9.90
2018-10-11T01:37:27.438Z,10.03
2018-10-11T01:39:33.927Z,11.73
2018-10-11T01:41:40.022Z,10.70
2018-10-11T01:43:46.115Z,10.87
2018-10-11T01:45:52.230Z,9.90
2018-10-11T01:47:58.699Z,10.30
2018-10-11T01:50:05.224Z,10.63
2018-10-11T01:52:11.304Z,10.90
2018-10-11T01:54:17.423Z,11.13
2018-10-11T01:56:23.579Z,10.87
2018-10-11T01:58:29.660Z,11.20
2018-10-11T02:00:35.792Z,10.70
2018-10-11T02:02:41.885Z,11.10
2018-10-11T02:04:48.008Z,10.70
2018-10-11T02:06:54.124Z,11.07
2018-10-11T02:09:00.209Z,11.50
2018-10-11T02:11:06.738Z,11.70
2018-10-11T02:13:12.818Z,10.40
2018-10-11T02:15:18.892Z,10.67
2018-10-11T02:17:24.984Z,9.87
2018-10-11T02:19:31.112Z,11.13
2018-10-11T02:21:37.222Z,10.57
2018-10-11T02:23:43.352Z,9.87
2018-10-11T02:25:49.540Z,10.37
2018-10-11T02:27:55.703Z,10.23
2018-10-11T02:30:02.455Z,10.20
2018-10-11T02:32:08.710Z,9.70
2018-10-11T02:34:14.806Z,10.40
2018-10-11T02:36:20.915Z,12.50
2018-10-11T02:38:27.010Z,10.07
2018-10-11T02:40:33.053Z,11.13
2018-10-11T02:42:39.249Z,9.53
2018-10-11T02:44:45.343Z,10.80
2018-10-11T02:46:51.922Z,10.23
2018-10-11T02:48:58.028Z,10.90
2018-10-11T02:51:04.110Z,11.77
2018-10-11T02:53:10.170Z,10.80
2018-10-11T02:55:27.481Z,11.60
2018-10-11T02:57:50.368Z,11.37
2018-10-11T02:59:56.484Z,9.80
2018-10-11T03:02:17.398Z,10.40
2018-10-11T03:04:23.581Z,9.57
2018-10-11T03:06:29.758Z,11.10
2018-10-11T03:08:35.897Z,10.43
2018-10-11T03:10:42.061Z,11.20
2018-10-11T03:12:55.198Z,10.50
2018-10-11T03:15:01.319Z,8.97
2018-10-11T03:17:07.535Z,7.57
2018-10-11T03:19:13.653Z,6.87
2018-10-11T03:21:19.788Z,7.77
2018-10-11T03:23:25.892Z,5.83
2018-10-11T03:25:31.935Z,8.17
2018-10-11T03:27:38.288Z,8.13
2018-10-11T03:29:44.709Z,9.23
2018-10-11T03:31:50.818Z,9.73
2018-10-11T03:33:56.921Z,10.80
2018-10-11T03:36:03.011Z,12.83
2018-10-11T03:38:09.116Z,12.57
2018-10-11T03:40:15.229Z,12.00
2018-10-11T03:42:21.303Z,13.20
2018-10-11T03:44:28.088Z,11.50
2018-10-11T03:46:34.227Z,10.20
2018-10-11T03:48:40.277Z,8.87
2018-10-11T03:50:46.398Z,9.87
2018-10-11T03:52:52.452Z,9.10
2018-10-11T03:54:58.573Z,9.37
2018-10-11T03:57:04.684Z,11.37
2018-10-11T03:59:10.788Z,8.73
2018-10-11T04:01:16.926Z,9.37
2018-10-11T04:03:23.060Z,10.57
2018-10-11T04:05:29.140Z,9.40
2018-10-11T04:07:35.333Z,10.70
2018-10-11T04:09:41.664Z,9.13
2018-10-11T04:11:47.743Z,9.60
2018-10-11T04:13:53.833Z,9.43
2018-10-11T04:15:59.909Z,9.97
2018-10-11T04:18:06.444Z,10.47
2018-10-11T04:20:13.342Z,10.20
2018-10-11T04:22:19.507Z,12.30
2018-10-11T04:24:25.677Z,11.37
2018-10-11T04:26:31.751Z,11.20
2018-10-11T04:28:37.879Z,12.03
2018-10-11T04:30:43.992Z,11.90
2018-10-11T04:32:50.071Z,10.23
2018-10-11T04:34:56.228Z,11.50
2018-10-11T04:37:02.341Z,10.87
2018-10-11T04:39:10.001Z,12.10
2018-10-11T04:41:16.172Z,11.57
2018-10-11T04:43:22.633Z,10.70
2018-10-11T04:45:28.778Z,10.90
2018-10-11T04:47:34.830Z,10.00
2018-10-11T04:49:41.180Z,10.20
2018-10-11T04:51:47.369Z,9.90
2018-10-11T04:53:55.564Z,8.90
2018-10-11T04:56:01.675Z,8.40
2018-10-11T04:58:07.883Z,9.17
2018-10-11T05:00:14.017Z,9.87
2018-10-11T05:02:20.236Z,11.07
2018-10-11T05:04:26.312Z,12.60
2018-10-11T05:06:32.459Z,11.97
2018-10-11T05:08:38.705Z,13.27
2018-10-11T05:10:45.431Z,14.43
2018-10-11T05:12:51.687Z,13.47
2018-10-11T05:14:57.988Z,13.57
2018-10-11T05:17:04.169Z,13.80
2018-10-11T05:19:11.133Z,16.50
2018-10-11T05:21:17.314Z,15.17
2018-10-11T05:23:23.408Z,14.50
2018-10-11T05:25:29.522Z,15.77
2018-10-11T05:27:35.598Z,15.70
2018-10-11T05:29:41.713Z,16.23
2018-10-11T05:31:48.064Z,17.93
2018-10-11T05:33:54.877Z,17.70
2018-10-11T05:36:00.947Z,14.87
2018-10-11T05:38:07.159Z,15.63
2018-10-11T05:40:13.263Z,16.67
2018-10-11T05:42:19.576Z,16.97
2018-10-11T05:44:25.927Z,15.50
2018-10-11T05:46:33.705Z,17.40
2018-10-11T05:48:39.900Z,15.87
2018-10-11T05:50:46.076Z,17.67
2018-10-11T05:52:53.211Z,16.87
2018-10-11T05:54:59.356Z,19.37
2018-10-11T05:57:05.553Z,18.20
2018-10-11T05:59:12.196Z,17.47
2018-10-11T06:01:18.425Z,18.00
2018-10-11T06:03:24.751Z,17.90
2018-10-11T06:05:31.535Z,17.40
2018-10-11T06:07:37.712Z,19.50
2018-10-11T06:09:43.833Z,18.63
2018-10-11T06:11:50.095Z,17.57
2018-10-11T06:13:56.275Z,17.67
2018-10-11T06:16:02.613Z,17.93
2018-10-11T06:18:09.047Z,18.23
2018-10-11T06:20:15.333Z,19.90
2018-10-11T06:22:21.445Z,19.50
2018-10-11T06:24:27.631Z,18.13
2018-10-11T06:26:33.755Z,19.40
2018-10-11T06:28:40.004Z,18.47
2018-10-11T06:30:46.198Z,19.47
2018-10-11T06:32:52.342Z,18.60
2018-10-11T06:34:58.528Z,20.10
2018-10-11T06:37:04.847Z,17.30
2018-10-11T06:39:11.851Z,19.20
2018-10-11T06:41:18.008Z,20.27
2018-10-11T06:43:24.245Z,19.67
2018-10-11T06:45:30.377Z,20.30
2018-10-11T06:47:36.515Z,19.33
2018-10-11T06:49:42.716Z,19.77
2018-10-11T06:51:48.996Z,17.70
2018-10-11T06:53:55.154Z,19.50
2018-10-11T06:56:01.456Z,19.73
2018-10-11T06:58:07.599Z,21.57
2018-10-11T07:00:13.767Z,20.03
2018-10-11T07:02:19.912Z,21.00
2018-10-11T07:04:26.037Z,20.67
2018-10-11T07:06:32.205Z,20.37
2018-10-11T07:08:38.384Z,19.53
2018-10-11T07:10:44.513Z,19.57
2018-10-11T07:12:50.685Z,21.50
2018-10-11T07:14:56.781Z,19.87
2018-10-11T07:17:02.980Z,20.37
2018-10-11T07:19:09.176Z,19.23
2018-10-11T07:21:15.251Z,21.40
2018-10-11T07:23:21.345Z,20.80
2018-10-11T07:25:27.464Z,18.17
2018-10-11T07:27:33.754Z,20.97
2018-10-11T07:29:39.848Z,18.13
2018-10-11T07:31:45.987Z,20.03
2018-10-11T07:33:52.083Z,18.77
2018-10-11T07:35:58.175Z,19.17
2018-10-11T07:38:04.333Z,18.83
2018-10-11T07:40:10.484Z,20.43
2018-10-11T07:42:16.648Z,18.30
2018-10-11T07:44:22.765Z,18.37
2018-10-11T07:46:28.861Z,20.43
2018-10-11T07:48:34.977Z,18.20
2018-10-11T07:50:41.198Z,20.10
2018-10-11T07:52:47.347Z,19.20
2018-10-11T07:54:53.445Z,18.53
2018-10-11T07:57:00.146Z,19.20
2018-10-11T07:59:06.520Z,19.00
2018-10-11T08:01:12.753Z,19.90
2018-10-11T08:03:18.899Z,21.37
2018-10-11T08:05:25.076Z,19.53
2018-10-11T08:07:31.660Z,19.40
2018-10-11T08:09:37.748Z,18.70
2018-10-11T08:11:44.118Z,21.70
2018-10-11T08:13:50.185Z,17.97
2018-10-11T08:15:56.490Z,20.67
2018-10-11T08:18:02.768Z,19.87
2018-10-11T08:20:08.874Z,18.97
2018-10-11T08:22:14.892Z,19.07
2018-10-11T08:24:21.050Z,20.67
2018-10-11T08:26:27.444Z,19.37
2018-10-11T08:28:33.423Z,20.57
2018-10-11T08:30:39.529Z,19.40
2018-10-11T08:32:45.702Z,18.20
2018-10-11T08:34:51.916Z,20.33
2018-10-11T08:36:58.091Z,21.97
2018-10-11T08:39:05.585Z,20.30
2018-10-11T08:41:11.759Z,21.13
2018-10-11T08:43:17.897Z,23.60
2018-10-11T08:45:24.020Z,21.40
2018-10-11T08:47:30.120Z,21.37
2018-10-11T08:49:36.219Z,22.70
2018-10-11T08:51:42.333Z,20.60
2018-10-11T08:53:48.450Z,20.70
2018-10-11T08:55:54.635Z,21.30
2018-10-11T08:58:00.728Z,21.00
2018-10-11T09:00:08.933Z,19.37
2018-10-11T09:02:15.180Z,19.17
2018-10-11T09:04:21.336Z,19.27
2018-10-11T09:06:27.505Z,20.00
2018-10-11T09:08:33.571Z,21.00
2018-10-11T09:10:39.745Z,19.50
2018-10-11T09:12:45.838Z,20.17
2018-10-11T09:14:52.014Z,17.33
2018-10-11T09:19:04.868Z,19.43
2018-10-11T09:21:11.107Z,20.17
2018-10-11T09:23:17.368Z,19.67
2018-10-11T09:25:23.474Z,20.20
2018-10-11T09:27:29.560Z,17.70
2018-10-11T09:29:35.667Z,20.03
2018-10-11T09:31:41.760Z,19.47
2018-10-11T09:33:47.866Z,18.23
2018-10-11T09:35:54.017Z,18.40
2018-10-11T09:38:00.134Z,18.80
2018-10-11T09:40:07.229Z,17.83
2018-10-11T09:42:13.352Z,17.20
2018-10-11T09:44:19.448Z,17.23
2018-10-11T09:46:25.540Z,18.50
2018-10-11T09:48:31.754Z,17.60
2018-10-11T09:50:37.871Z,18.70
2018-10-11T09:52:45.271Z,18.23
2018-10-11T09:54:51.421Z,16.60
2018-10-11T09:57:32.044Z,17.00
2018-10-11T09:59:38.124Z,16.70
2018-10-11T10:01:46.970Z,17.47
2018-10-11T10:03:53.047Z,16.03
2018-10-11T10:05:59.282Z,17.50
2018-10-11T10:08:05.424Z,17.00
2018-10-11T10:10:11.609Z,16.57
2018-10-11T10:12:18.193Z,15.40
2018-10-11T10:14:24.274Z,14.63
2018-10-11T10:16:30.404Z,13.60
2018-10-11T10:18:36.522Z,13.90
2018-10-11T10:20:42.637Z,14.23
2018-10-11T10:22:48.777Z,13.60
2018-10-11T10:24:54.852Z,14.10
2018-10-11T10:27:01.021Z,12.50
2018-10-11T10:29:07.159Z,13.20
2018-10-11T10:31:13.277Z,13.20
2018-10-11T10:33:19.420Z,13.30
2018-10-11T10:35:25.584Z,13.10
2018-10-11T10:37:31.655Z,12.00
2018-10-11T10:39:37.821Z,12.13
2018-10-11T10:41:44.043Z,13.13
2018-10-11T10:43:50.187Z,11.67
2018-10-11T10:45:56.358Z,12.87
2018-10-11T10:48:02.461Z,11.40
2018-10-11T10:50:08.632Z,11.77
2018-10-11T10:52:14.784Z,11.97
2018-10-11T10:54:27.731Z,11.43
2018-10-11T10:56:33.864Z,10.90
2018-10-11T10:58:39.963Z,9.40
2018-10-11T11:00:46.082Z,9.50
2018-10-11T11:02:52.212Z,8.20
2018-10-11T11:04:58.373Z,9.83
2018-10-11T11:07:04.480Z,9.30
2018-10-11T11:09:12.532Z,9.90
2018-10-11T11:11:18.615Z,9.70
2018-10-11T11:13:24.785Z,9.30
2018-10-11T11:15:30.896Z,8.70
2018-10-11T11:17:37.004Z,9.37
2018-10-11T11:19:43.270Z,9.47
2018-10-11T11:21:49.412Z,8.73
2018-10-11T11:23:55.518Z,10.20
2018-10-11T11:26:01.645Z,9.43
2018-10-11T11:28:07.860Z,9.20
2018-10-11T11:30:13.983Z,9.73
2018-10-11T11:32:20.105Z,9.10
2018-10-11T11:34:26.237Z,10.23
2018-10-11T11:36:32.362Z,9.10
2018-10-11T11:38:38.540Z,10.57
2018-10-11T11:40:44.686Z,10.67
2018-10-11T11:42:50.759Z,9.57
2018-10-11T11:44:56.896Z,10.80
2018-10-11T11:47:02.965Z,10.23
2018-10-11T11:49:09.045Z,10.13
2018-10-11T11:51:15.138Z,10.30
2018-10-11T11:53:21.284Z,8.90
2018-10-11T11:55:27.512Z,9.73
2018-10-11T11:57:33.619Z,8.43
2018-10-11T11:59:39.699Z,8.60
2018-10-11T12:01:45.840Z,10.50
2018-10-11T12:03:52.628Z,8.10
2018-10-11T12:05:58.810Z,6.90
2018-10-11T12:08:04.883Z,7.20
2018-10-11T12:10:10.999Z,7.90
2018-10-11T12:13:25.148Z,6.30
2018-10-11T12:15:32.125Z,5.87
2018-10-11T12:17:38.189Z,5.77
2018-10-11T12:19:44.304Z,7.77
2018-10-11T12:21:50.387Z,5.53
2018-10-11T12:23:55.445Z,6.07
2018-10-11T12:26:01.220Z,5.83
2018-10-11T12:28:07.474Z,6.50
2018-10-11T12:30:13.962Z,5.93
2018-10-11T12:32:20.066Z,6.33
2018-10-11T12:34:26.183Z,6.23
2018-10-11T12:36:32.330Z,5.47
2018-10-11T12:38:38.445Z,5.70
2018-10-11T12:40:44.612Z,5.60
2018-10-11T12:42:50.716Z,5.13
2018-10-11T12:44:56.853Z,5.40
2018-10-11T12:47:05.349Z,6.50
2018-10-11T12:49:11.497Z,5.07
2018-10-11T12:51:17.662Z,5.03
2018-10-11T12:53:23.922Z,6.07
2018-10-11T12:55:30.114Z,5.70
2018-10-11T12:57:36.466Z,4.63
2018-10-11T12:59:42.469Z,5.40
2018-10-11T13:01:48.611Z,5.23
2018-10-11T13:03:54.728Z,5.50
2018-10-11T13:06:00.869Z,5.23
2018-10-11T13:08:06.975Z,4.80
2018-10-11T13:10:13.119Z,5.03
2018-10-11T13:12:19.315Z,4.90
2018-10-11T13:14:25.379Z,5.80
2018-10-11T13:16:31.628Z,5.30
2018-10-11T13:18:37.760Z,5.73
2018-10-11T13:20:43.918Z,5.70
2018-10-11T13:22:50.046Z,5.03
2018-10-11T13:24:56.190Z,5.97
2018-10-11T13:27:02.614Z,5.80
2018-10-11T13:29:08.739Z,6.20
2018-10-11T13:31:14.861Z,6.67
2018-10-11T13:33:20.966Z,6.23
2018-10-11T13:35:27.080Z,5.90
2018-10-11T13:37:33.302Z,5.77
2018-10-11T13:39:39.781Z,5.90
2018-10-11T13:41:45.789Z,6.23
2018-10-11T13:43:51.968Z,6.20
2018-10-11T13:46:01.203Z,6.20
2018-10-11T13:48:04.341Z,6.10
2018-10-11T13:50:11.064Z,5.80
2018-10-11T13:52:20.558Z,5.83
2018-10-11T13:54:23.347Z,5.97
2018-10-11T13:56:29.473Z,6.40
2018-10-11T13:58:35.575Z,5.80
2018-10-11T14:00:41.768Z,6.00
2018-10-11T14:02:47.792Z,6.80
2018-10-11T14:04:53.919Z,5.77
2018-10-11T14:07:00.109Z,6.20
2018-10-11T14:09:10.252Z,6.70
2018-10-11T14:11:16.437Z,6.23
2018-10-11T14:13:22.585Z,6.60
2018-10-11T14:15:28.741Z,6.20
2018-10-11T14:17:34.925Z,5.83
2018-10-11T14:19:41.001Z,7.03
2018-10-11T14:21:47.131Z,6.57
2018-10-11T14:23:53.286Z,7.20
2018-10-11T14:25:59.384Z,6.37
2018-10-11T14:28:05.574Z,6.60
2018-10-11T14:30:11.713Z,6.40
2018-10-11T14:32:17.836Z,6.60
2018-10-11T14:34:23.934Z,6.40
2018-10-11T14:36:30.705Z,7.10
2018-10-11T14:38:36.763Z,6.27
2018-10-11T14:40:42.916Z,7.70
2018-10-11T14:42:49.095Z,6.43
2018-10-11T14:44:55.251Z,8.20
2018-10-11T14:47:01.458Z,7.90
2018-10-11T14:49:07.600Z,7.93
2018-10-11T14:51:13.814Z,9.10
2018-10-11T14:53:19.830Z,7.40
2018-10-11T14:55:26.017Z,8.00
2018-10-11T14:57:32.190Z,7.93
2018-10-11T14:59:38.469Z,7.03
2018-10-11T15:01:44.548Z,7.47
2018-10-11T15:03:50.685Z,6.90
2018-10-11T15:05:56.849Z,6.13
2018-10-11T15:08:03.030Z,7.07
2018-10-11T15:10:09.263Z,7.30
2018-10-11T15:12:15.393Z,7.23
2018-10-11T15:14:21.530Z,7.03
2018-10-11T15:16:28.168Z,7.53
2018-10-11T15:18:33.315Z,8.23
2018-10-11T15:20:38.142Z,7.30
2018-10-11T15:22:44.021Z,7.60
2018-10-11T15:24:50.218Z,6.90
2018-10-11T15:26:55.369Z,8.17
2018-10-11T15:29:01.342Z,7.50
2018-10-11T15:31:07.528Z,7.50
2018-10-11T15:33:13.973Z,7.60
2018-10-11T15:35:20.770Z,8.40
2018-10-11T15:37:26.939Z,7.40
2018-10-11T15:39:33.208Z,7.07
2018-10-11T15:41:39.603Z,6.97
2018-10-11T15:43:45.781Z,6.33
2018-10-11T15:45:51.932Z,6.60
2018-10-11T15:47:58.126Z,7.27
2018-10-11T15:50:04.304Z,6.40
2018-10-11T15:52:10.826Z,6.83
2018-10-11T15:54:17.032Z,6.30
2018-10-11T15:56:23.156Z,6.87
2018-10-11T15:58:29.302Z,5.97
2018-10-11T16:00:35.436Z,6.10
2018-10-11T16:02:41.521Z,6.37
2018-10-11T16:04:47.689Z,6.13
2018-10-11T16:06:53.841Z,6.50
2018-10-11T16:09:00.161Z,6.27
2018-10-11T16:11:06.257Z,6.30
2018-10-11T16:13:12.514Z,6.30
2018-10-11T16:15:18.674Z,6.50
2018-10-11T16:17:24.863Z,6.77
2018-10-11T16:19:53.194Z,7.07
2018-10-11T16:22:22.264Z,6.33
2018-10-11T16:24:28.421Z,6.60
2018-10-11T16:26:34.708Z,5.30
2018-10-11T16:28:40.931Z,5.77
2018-10-11T16:30:47.083Z,6.27
2018-10-11T16:32:53.308Z,5.90
2018-10-11T16:34:59.469Z,6.40
2018-10-11T16:37:05.615Z,6.07
2018-10-11T16:39:11.750Z,6.10
2018-10-11T16:41:17.887Z,6.00
2018-10-11T16:43:24.008Z,6.40
2018-10-11T16:45:30.121Z,7.13
2018-10-11T16:47:36.371Z,6.10
2018-10-11T16:49:42.595Z,6.30
2018-10-11T16:51:48.745Z,6.23
2018-10-11T16:53:55.180Z,6.20
2018-10-11T16:56:01.261Z,6.70
2018-10-11T16:58:07.922Z,6.60
2018-10-11T17:00:13.989Z,6.30
2018-10-11T17:02:20.216Z,6.13
2018-10-11T17:04:26.400Z,6.80
2018-10-11T17:06:32.609Z,6.50
2018-10-11T17:08:38.907Z,7.27
2018-10-11T17:10:45.098Z,7.47
2018-10-11T17:12:51.306Z,8.50
2018-10-11T17:14:57.517Z,8.70
2018-10-11T17:17:03.677Z,7.53
2018-10-11T17:19:32.340Z,7.70
2018-10-11T17:22:00.576Z,7.40
2018-10-11T17:24:07.072Z,6.53
2018-10-11T17:26:13.302Z,7.87
2018-10-11T17:28:19.491Z,8.40
2018-10-11T17:30:25.716Z,9.27
2018-10-11T17:32:31.901Z,10.00
2018-10-11T17:34:38.101Z,7.50
2018-10-11T17:36:44.337Z,9.50
2018-10-11T17:38:50.444Z,8.30
2018-10-11T17:40:56.702Z,8.27
2018-10-11T17:43:02.973Z,9.30
2018-10-11T17:45:09.389Z,8.33
2018-10-11T17:47:15.523Z,9.93
2018-10-11T17:49:21.698Z,8.57
2018-10-11T17:51:28.369Z,8.20
2018-10-11T17:53:34.871Z,8.37
2018-10-11T17:55:41.073Z,8.73
2018-10-11T17:57:47.319Z,9.50
2018-10-11T17:59:53.536Z,8.67
2018-10-11T18:01:59.875Z,8.70
2018-10-11T18:04:06.312Z,10.27
2018-10-11T18:06:12.616Z,8.10
2018-10-11T18:08:18.817Z,10.10
2018-10-11T18:10:25.049Z,10.80
2018-10-11T18:12:31.242Z,11.80
2018-10-11T18:14:37.645Z,10.47
2018-10-11T18:16:43.825Z,10.40
2018-10-11T18:19:19.001Z,8.90
2018-10-11T18:21:48.226Z,8.60
2018-10-11T18:23:54.320Z,8.37
2018-10-11T18:26:00.489Z,9.97
2018-10-11T18:28:06.723Z,9.57
2018-10-11T18:30:13.571Z,9.00
2018-10-11T18:32:19.774Z,9.23
2018-10-11T18:34:26.013Z,8.80
2018-10-11T18:36:32.136Z,8.77
2018-10-11T18:38:38.497Z,8.40
2018-10-11T18:40:44.647Z,8.67
2018-10-11T18:42:50.777Z,8.90
2018-10-11T18:44:57.245Z,8.03
2018-10-11T18:47:03.531Z,7.67
2018-10-11T18:49:10.375Z,8.10
2018-10-11T18:51:16.651Z,11.07
2018-10-11T18:53:24.153Z,12.20
2018-10-11T18:55:30.344Z,11.23
2018-10-11T18:57:36.911Z,8.33
2018-10-11T18:59:43.090Z,9.23
2018-10-11T19:01:49.273Z,9.10
2018-10-11T19:03:55.451Z,9.10
2018-10-11T19:06:01.614Z,9.27
2018-10-11T19:08:07.829Z,9.90
2018-10-11T19:10:14.059Z,9.17
2018-10-11T19:12:20.356Z,8.67
2018-10-11T19:14:26.528Z,10.00
2018-10-11T19:16:32.864Z,9.93
2018-10-11T19:19:09.231Z,9.20
2018-10-11T19:21:38.201Z,7.47
2018-10-11T19:23:44.497Z,9.03
2018-10-11T19:25:51.730Z,8.77
2018-10-11T19:27:57.938Z,9.67
2018-10-11T19:30:04.263Z,9.90
2018-10-11T19:32:10.612Z,10.43
2018-10-11T19:34:16.809Z,9.60
2018-10-11T19:36:22.953Z,9.80
2018-10-11T19:38:29.171Z,9.17
2018-10-11T19:40:35.399Z,9.57
2018-10-11T19:42:41.657Z,9.90
2018-10-11T19:44:48.140Z,9.97
2018-10-11T19:46:54.346Z,9.67
2018-10-11T19:49:00.651Z,9.83
2018-10-11T19:51:07.013Z,7.77
2018-10-11T19:53:13.292Z,9.30
2018-10-11T19:55:19.436Z,9.40
2018-10-11T19:57:25.645Z,9.73
2018-10-11T19:59:31.861Z,9.23
2018-10-11T20:01:38.827Z,9.63
2018-10-11T20:03:45.009Z,9.37
2018-10-11T20:05:51.288Z,8.60
2018-10-11T20:07:57.711Z,9.37
2018-10-11T20:10:03.844Z,8.50
2018-10-11T20:12:10.043Z,9.40
2018-10-11T20:14:16.218Z,8.53
2018-10-11T20:16:22.452Z,8.73
2018-10-11T20:18:28.630Z,10.30
2018-10-11T20:21:14.777Z,9.20
2018-10-11T20:23:39.081Z,7.90
2018-10-11T20:25:45.422Z,8.77
2018-10-11T20:27:51.552Z,8.47
2018-10-11T20:29:57.702Z,9.33
2018-10-11T20:32:04.096Z,8.80
2018-10-11T20:34:10.407Z,9.00
2018-10-11T20:36:16.576Z,9.13
2018-10-11T20:38:22.757Z,9.40
2018-10-11T20:40:29.053Z,9.37
2018-10-11T20:42:35.208Z,8.07
2018-10-11T20:44:41.364Z,8.40
2018-10-11T20:46:47.671Z,9.20
2018-10-11T20:48:53.906Z,8.80
2018-10-11T20:51:00.289Z,8.87
2018-10-11T20:53:06.883Z,8.30
2018-10-11T20:55:13.119Z,8.07
2018-10-11T20:57:19.540Z,9.47
2018-10-11T20:59:25.637Z,8.50
2018-10-11T21:01:33.277Z,9.93
2018-10-11T21:03:40.206Z,9.70
2018-10-11T21:05:47.761Z,8.90
2018-10-11T21:07:53.929Z,8.87
2018-10-11T21:10:00.458Z,8.90
2018-10-11T21:12:06.836Z,8.23
2018-10-11T21:14:13.005Z,8.20
2018-10-11T21:16:19.186Z,8.10
2018-10-11T21:18:25.353Z,8.90
2018-10-11T21:20:53.422Z,8.30
2018-10-11T21:23:21.842Z,7.73
2018-10-11T21:25:28.037Z,8.47
2018-10-11T21:27:34.880Z,9.03
2018-10-11T21:29:40.941Z,8.70
2018-10-11T21:31:47.086Z,9.33
2018-10-11T21:33:53.231Z,8.13
2018-10-11T21:35:59.376Z,7.77
2018-10-11T21:38:05.708Z,8.20
2018-10-11T21:40:12.523Z,8.60
2018-10-11T21:42:18.571Z,8.73
2018-10-11T21:44:24.821Z,9.50
2018-10-11T21:46:30.887Z,9.07
2018-10-11T21:48:36.994Z,9.07
2018-10-11T21:50:43.094Z,7.83
2018-10-11T21:52:49.226Z,8.20
2018-10-11T21:54:55.304Z,8.93
2018-10-11T21:57:01.401Z,8.73
2018-10-11T21:59:08.260Z,7.90
2018-10-11T22:01:21.976Z,8.10
2018-10-11T22:03:28.127Z,8.80
2018-10-11T22:05:34.256Z,8.03
2018-10-11T22:07:40.401Z,8.13
2018-10-11T22:09:46.522Z,8.30
2018-10-11T22:11:52.701Z,8.37
2018-10-11T22:13:58.949Z,8.60
2018-10-11T22:16:05.148Z,8.50
2018-10-11T22:18:11.572Z,7.60
2018-10-11T22:20:39.993Z,8.67
2018-10-11T22:23:08.915Z,8.00
2018-10-11T22:25:15.137Z,7.57
2018-10-11T22:27:21.205Z,8.00
2018-10-11T22:29:27.313Z,9.40
2018-10-11T22:31:33.433Z,7.50
2018-10-11T22:33:39.924Z,8.87
2018-10-11T22:35:46.036Z,8.80
2018-10-11T22:37:59.647Z,8.77
2018-10-11T22:40:05.902Z,8.63
2018-10-11T22:42:12.319Z,8.60
2018-10-11T22:44:18.493Z,9.00
2018-10-11T22:46:24.825Z,8.30
2018-10-11T22:48:30.935Z,9.17
2018-10-11T22:50:37.203Z,8.90
2018-10-11T22:52:43.291Z,9.87
2018-10-11T22:54:49.487Z,9.00
2018-10-11T22:56:55.589Z,8.27
2018-10-11T22:59:01.741Z,9.73
2018-10-11T23:01:08.034Z,9.30
2018-10-11T23:03:14.169Z,8.87
2018-10-11T23:05:20.335Z,9.90
2018-10-11T23:07:26.510Z,8.23
2018-10-11T23:09:32.619Z,8.63
2018-10-11T23:11:38.719Z,9.43
2018-10-11T23:13:44.852Z,7.33
2018-10-11T23:15:50.936Z,8.83
2018-10-11T23:17:57.096Z,8.50
2018-10-11T23:20:25.963Z,8.50
2018-10-11T23:22:54.219Z,8.80
2018-10-11T23:25:00.407Z,9.57
2018-10-11T23:27:06.594Z,8.80
2018-10-11T23:29:12.707Z,9.07
2018-10-11T23:31:18.843Z,8.60
2018-10-11T23:33:25.377Z,9.10
2018-10-11T23:35:31.477Z,9.03
2018-10-11T23:37:37.641Z,9.33
2018-10-11T23:39:43.736Z,8.80
2018-10-11T23:41:49.825Z,8.20
2018-10-11T23:43:55.895Z,9.20
2018-10-11T23:46:02.056Z,9.60
2018-10-11T23:48:08.739Z,9.00
2018-10-11T23:50:14.864Z,8.40
2018-10-11T23:52:20.963Z,9.83
2018-10-11T23:54:27.068Z,8.70
2018-10-11T23:56:33.162Z,8.90
2018-10-11T23:58:39.249Z,9.07
